createdAt,value
2019-05-09T00:01:34.732Z,45.03
2019-05-09T00:04:03.558Z,45.15
2019-05-09T00:06:33.957Z,43.65
2019-05-09T00:09:03.764Z,44.42
2019-05-09T00:11:33.521Z,43.35
2019-05-09T00:14:04.444Z,43.73
2019-05-09T00:16:36.287Z,38.13
2019-05-09T00:19:04.949Z,37.88
2019-05-09T00:21:38.263Z,38.10
2019-05-09T00:24:06.928Z,37.08
2019-05-09T00:26:35.629Z,38.40
2019-05-09T00:29:05.957Z,41.65
2019-05-09T00:31:45.404Z,35.20
2019-05-09T00:34:24.986Z,39.48
2019-05-09T00:36:54.038Z,39.27
2019-05-09T00:39:23.651Z,37.58
2019-05-09T00:41:53.893Z,43.10
2019-05-09T00:44:24.372Z,33.80
2019-05-09T00:46:54.706Z,43.60
2019-05-09T00:49:25.054Z,38.23
2019-05-09T00:51:54.130Z,41.77
2019-05-09T00:54:24.029Z,38.75
2019-05-09T00:56:53.953Z,34.85
2019-05-09T00:59:24.107Z,36.28
2019-05-09T01:01:54.310Z,34.25
2019-05-09T01:04:24.141Z,35.90
2019-05-09T01:06:53.985Z,34.08
2019-05-09T01:09:24.153Z,33.63
2019-05-09T01:11:53.492Z,30.17
2019-05-09T01:14:23.420Z,24.43
2019-05-09T01:16:53.499Z,24.00
2019-05-09T01:19:23.283Z,20.08
2019-05-09T01:21:54.197Z,18.85
2019-05-09T01:24:23.241Z,19.73
2019-05-09T01:26:54.120Z,17.05
2019-05-09T01:29:25.902Z,19.32
2019-05-09T01:31:56.251Z,21.12
2019-05-09T01:34:27.965Z,21.35
2019-05-09T01:37:07.004Z,19.25
2019-05-09T01:39:36.826Z,19.60
2019-05-09T01:42:05.781Z,19.90
2019-05-09T01:44:34.470Z,20.45
2019-05-09T01:47:03.950Z,19.67
2019-05-09T01:49:34.146Z,17.92
2019-05-09T01:52:03.592Z,19.05
2019-05-09T01:54:33.701Z,16.35
2019-05-09T01:57:03.230Z,18.62
2019-05-09T01:59:33.961Z,21.33
2019-05-09T02:02:08.251Z,18.42
2019-05-09T02:04:33.573Z,21.50
2019-05-09T02:07:04.085Z,19.52
2019-05-09T02:09:34.204Z,22.98
2019-05-09T02:12:04.008Z,20.45
2019-05-09T02:17:33.456Z,20.43
2019-05-09T02:20:04.022Z,23.83
2019-05-09T02:22:38.802Z,20.25
2019-05-09T02:25:10.627Z,20.12
2019-05-09T02:27:39.314Z,24.12
2019-05-09T02:30:10.155Z,24.10
2019-05-09T02:32:39.544Z,22.37
2019-05-09T02:35:09.238Z,21.75
2019-05-09T02:37:38.980Z,26.37
2019-05-09T02:40:09.674Z,20.50
2019-05-09T02:42:39.853Z,19.45
2019-05-09T02:45:09.939Z,21.17
2019-05-09T02:47:38.951Z,22.62
2019-05-09T02:50:09.660Z,25.70
2019-05-09T02:52:39.595Z,22.10
2019-05-09T02:55:10.349Z,23.80
2019-05-09T02:57:39.837Z,19.32
2019-05-09T03:00:19.694Z,23.07
2019-05-09T03:02:48.935Z,21.25
2019-05-09T03:05:19.539Z,24.07
2019-05-09T03:07:51.114Z,20.00
2019-05-09T03:10:21.945Z,20.75
2019-05-09T03:12:51.107Z,20.75
2019-05-09T03:15:20.913Z,21.37
2019-05-09T03:17:50.109Z,21.15
2019-05-09T03:20:28.949Z,24.12
2019-05-09T03:22:58.467Z,21.33
2019-05-09T03:25:28.952Z,23.62
2019-05-09T03:31:09.421Z,22.87
2019-05-09T03:33:40.685Z,21.00
2019-05-09T03:36:07.846Z,24.65
2019-05-09T03:38:38.052Z,24.82
2019-05-09T03:41:08.480Z,27.13
2019-05-09T03:43:37.792Z,27.77
2019-05-09T03:49:03.006Z,27.15
2019-05-09T03:51:31.709Z,26.48
2019-05-09T03:54:00.396Z,26.20
2019-05-09T03:56:30.744Z,27.82
2019-05-09T03:58:59.380Z,26.20
2019-05-09T04:01:41.393Z,25.30
2019-05-09T04:04:10.258Z,30.00
2019-05-09T04:06:39.324Z,30.35
2019-05-09T04:09:08.913Z,30.97
2019-05-09T04:11:38.197Z,28.92
2019-05-09T04:14:08.635Z,31.87
2019-05-09T04:16:38.114Z,32.42
2019-05-09T04:19:08.258Z,29.85
2019-05-09T04:21:38.315Z,26.48
2019-05-09T04:24:08.544Z,30.88
2019-05-09T04:29:31.596Z,32.05
2019-05-09T04:32:00.373Z,32.23
2019-05-09T04:34:29.087Z,29.40
2019-05-09T04:36:57.911Z,32.00
2019-05-09T04:39:28.307Z,28.77
2019-05-09T04:42:03.718Z,28.10
2019-05-09T04:44:29.509Z,29.23
2019-05-09T04:47:01.698Z,30.20
2019-05-09T04:49:29.992Z,28.25
2019-05-09T04:51:59.043Z,31.55
2019-05-09T04:54:28.075Z,30.57
2019-05-09T04:56:57.969Z,33.40
2019-05-09T04:59:28.384Z,36.05
2019-05-09T05:02:10.809Z,39.20
2019-05-09T05:04:39.543Z,39.78
2019-05-09T05:07:09.889Z,41.75
2019-05-09T05:09:38.652Z,40.63
2019-05-09T05:12:08.402Z,40.17
2019-05-09T05:14:38.429Z,40.55
2019-05-09T05:17:11.232Z,37.33
2019-05-09T05:19:38.456Z,39.58
2019-05-09T05:22:08.971Z,37.28
2019-05-09T05:24:39.354Z,41.53
2019-05-09T05:27:08.392Z,41.10
2019-05-09T05:29:38.371Z,41.00
2019-05-09T05:32:08.842Z,39.23
2019-05-09T05:34:39.167Z,37.30
2019-05-09T05:37:07.867Z,42.60
2019-05-09T05:39:37.514Z,43.20
2019-05-09T05:42:08.256Z,42.53
2019-05-09T05:44:38.574Z,43.52
2019-05-09T05:47:18.129Z,43.70
2019-05-09T05:49:48.758Z,44.65
2019-05-09T05:52:18.548Z,44.50
2019-05-09T05:54:47.786Z,45.70
2019-05-09T05:57:17.775Z,47.05
2019-05-09T05:59:48.211Z,46.58
2019-05-09T06:02:17.786Z,45.05
2019-05-09T06:04:48.636Z,42.17
2019-05-09T06:07:18.410Z,45.70
2019-05-09T06:09:48.195Z,46.83
2019-05-09T06:12:18.505Z,48.23
2019-05-09T06:14:48.073Z,47.08
2019-05-09T06:17:18.110Z,49.08
2019-05-09T06:19:48.250Z,50.00
2019-05-09T06:22:18.331Z,48.85
2019-05-09T06:24:47.965Z,49.05
2019-05-09T06:27:18.224Z,51.05
2019-05-09T06:29:47.777Z,51.75
2019-05-09T06:32:18.817Z,50.35
2019-05-09T06:34:47.850Z,52.10
2019-05-09T06:37:18.339Z,51.20
2019-05-09T06:39:48.635Z,53.65
2019-05-09T06:42:18.316Z,54.85
2019-05-09T06:44:48.684Z,56.50
2019-05-09T06:47:18.985Z,53.75
2019-05-09T06:49:50.111Z,54.73
2019-05-09T06:52:18.975Z,53.05
2019-05-09T06:54:48.575Z,56.40
2019-05-09T06:57:18.718Z,56.88
2019-05-09T06:59:48.765Z,58.17
2019-05-09T07:02:22.729Z,58.02
2019-05-09T07:04:53.220Z,56.08
2019-05-09T07:07:29.378Z,59.23
2019-05-09T07:09:59.732Z,58.52
2019-05-09T07:12:28.407Z,63.60
2019-05-09T07:14:58.115Z,63.80
2019-05-09T07:17:31.667Z,59.65
2019-05-09T07:19:59.029Z,57.53
2019-05-09T07:22:29.915Z,54.67
2019-05-09T07:25:10.408Z,43.83
2019-05-09T07:27:40.186Z,45.03
2019-05-09T07:30:11.647Z,43.60
2019-05-09T07:32:58.409Z,39.98
2019-05-09T07:35:27.810Z,39.73
2019-05-09T07:37:57.864Z,39.63
2019-05-09T07:40:30.551Z,38.50
2019-05-09T07:42:58.524Z,39.23
2019-05-09T07:45:28.145Z,37.17
2019-05-09T07:47:58.340Z,33.78
2019-05-09T07:50:27.782Z,31.52
2019-05-09T07:52:58.180Z,32.42
2019-05-09T07:55:27.531Z,30.17
2019-05-09T07:57:58.751Z,32.40
2019-05-09T08:00:34.839Z,28.77
2019-05-09T08:03:03.814Z,34.13
2019-05-09T08:05:32.618Z,30.62
2019-05-09T08:08:01.297Z,28.57
2019-05-09T08:10:33.117Z,30.15
2019-05-09T08:13:00.519Z,27.17
2019-05-09T08:15:29.232Z,24.43
2019-05-09T08:17:59.267Z,25.92
2019-05-09T08:20:28.155Z,28.32
2019-05-09T08:23:01.510Z,26.68
2019-05-09T08:25:27.889Z,28.95
2019-05-09T08:27:58.786Z,28.40
2019-05-09T08:30:32.911Z,29.37
2019-05-09T08:32:59.841Z,25.32
2019-05-09T08:35:28.194Z,24.65
2019-05-09T08:37:58.629Z,23.77
2019-05-09T08:40:30.043Z,21.73
2019-05-09T08:42:59.174Z,19.00
2019-05-09T08:45:31.191Z,19.52
2019-05-09T08:47:58.529Z,18.45
2019-05-09T08:50:47.903Z,19.42
2019-05-09T08:53:15.589Z,19.00
2019-05-09T08:55:44.310Z,19.40
2019-05-09T08:58:13.145Z,19.62
2019-05-09T09:00:41.872Z,19.45
2019-05-09T09:03:10.532Z,18.70
2019-05-09T09:05:42.985Z,17.52
2019-05-09T09:08:10.299Z,17.42
2019-05-09T09:10:39.043Z,17.62
2019-05-09T09:13:08.846Z,17.65
2019-05-09T09:16:02.361Z,16.90
2019-05-09T09:18:08.957Z,16.70
2019-05-09T09:20:39.397Z,17.73
2019-05-09T09:23:08.960Z,16.57
2019-05-09T09:25:39.103Z,15.20
2019-05-09T09:28:08.884Z,15.13
2019-05-09T09:30:38.772Z,14.65
2019-05-09T09:33:11.398Z,13.68
2019-05-09T09:35:38.556Z,13.78
2019-05-09T09:38:09.365Z,13.90
2019-05-09T09:40:38.564Z,11.95
2019-05-09T09:43:09.272Z,12.98
2019-05-09T09:45:38.262Z,12.63
2019-05-09T09:48:08.945Z,11.85
2019-05-09T09:50:38.353Z,12.33
2019-05-09T09:53:08.851Z,11.68
2019-05-09T09:55:38.571Z,11.65
2019-05-09T09:58:08.170Z,9.88
2019-05-09T10:01:03.419Z,10.30
2019-05-09T10:03:31.643Z,9.75
2019-05-09T10:06:00.309Z,9.88
2019-05-09T10:08:29.088Z,9.10
2019-05-09T10:10:59.004Z,9.48
2019-05-09T10:13:28.690Z,9.20
2019-05-09T10:16:26.479Z,8.43
2019-05-09T10:19:01.844Z,7.75
2019-05-09T10:21:32.215Z,6.97
2019-05-09T10:24:00.946Z,6.20
2019-05-09T10:26:29.753Z,6.62
2019-05-09T10:28:58.396Z,5.67
2019-05-09T10:31:28.253Z,5.60
2019-05-09T10:33:57.970Z,4.92
2019-05-09T10:36:27.899Z,5.53
2019-05-09T10:38:58.417Z,5.78
2019-05-09T10:41:27.555Z,5.78
2019-05-09T10:44:00.683Z,4.95
2019-05-09T10:46:52.080Z,5.42
2019-05-09T10:49:08.648Z,5.42
2019-05-09T10:51:37.411Z,5.47
2019-05-09T10:54:08.087Z,6.47
2019-05-09T10:56:38.355Z,5.45
2019-05-09T10:59:07.745Z,6.85
2019-05-09T11:01:38.125Z,6.72
2019-05-09T11:04:08.168Z,7.35
2019-05-09T11:06:38.235Z,6.42
2019-05-09T11:09:09.632Z,5.83
2019-05-09T11:11:38.369Z,6.00
2019-05-09T11:14:08.520Z,4.78
2019-05-09T11:16:44.969Z,5.40
2019-05-09T11:19:08.284Z,5.35
2019-05-09T11:21:39.159Z,6.37
2019-05-09T11:24:08.408Z,5.37
2019-05-09T11:26:39.959Z,5.17
2019-05-09T11:29:08.185Z,5.85
2019-05-09T11:31:38.359Z,5.83
2019-05-09T11:34:08.821Z,5.22
2019-05-09T11:36:38.194Z,4.90
2019-05-09T11:39:10.761Z,5.42
2019-05-09T11:41:39.937Z,4.67
2019-05-09T11:44:08.838Z,4.08
2019-05-09T11:46:38.419Z,4.55
2019-05-09T11:49:08.320Z,3.87
2019-05-09T11:51:37.437Z,4.60
2019-05-09T11:54:08.841Z,4.70
2019-05-09T11:56:38.455Z,3.87
2019-05-09T11:59:07.821Z,3.80
2019-05-09T12:01:39.447Z,2.72
2019-05-09T12:04:08.055Z,2.92
2019-05-09T12:06:38.407Z,2.90
2019-05-09T12:09:08.977Z,2.85
2019-05-09T12:11:43.439Z,2.22
2019-05-09T12:14:08.952Z,2.67
2019-05-09T12:16:38.209Z,2.15
2019-05-09T12:19:07.055Z,2.30
2019-05-09T12:21:44.840Z,2.12
2019-05-09T12:24:08.833Z,2.00
2019-05-09T12:26:39.052Z,2.27
2019-05-09T12:29:08.710Z,2.17
2019-05-09T12:31:38.712Z,2.00
2019-05-09T12:34:09.074Z,1.95
2019-05-09T12:36:39.891Z,2.30
2019-05-09T12:39:09.031Z,2.47
2019-05-09T12:41:38.541Z,2.20
2019-05-09T12:44:08.840Z,2.62
2019-05-09T12:46:39.314Z,2.30
2019-05-09T12:49:09.058Z,2.27
2019-05-09T12:51:37.860Z,2.20
2019-05-09T12:54:08.392Z,2.50
2019-05-09T12:56:38.469Z,2.27
2019-05-09T12:59:08.740Z,2.55
2019-05-09T13:01:40.592Z,2.77
2019-05-09T13:04:09.720Z,2.60
2019-05-09T13:06:38.673Z,2.22
2019-05-09T13:09:08.429Z,2.30
2019-05-09T13:11:39.058Z,2.72
2019-05-09T13:14:10.047Z,1.90
2019-05-09T13:16:48.547Z,2.47
2019-05-09T13:19:18.520Z,2.50
2019-05-09T13:21:47.430Z,2.20
2019-05-09T13:24:19.770Z,2.20
2019-05-09T13:26:49.962Z,2.12
2019-05-09T13:29:18.627Z,2.00
2019-05-09T13:31:48.292Z,8.50
2019-05-09T13:34:18.822Z,2.20
2019-05-09T13:36:49.575Z,2.15
2019-05-09T13:39:19.711Z,2.27
2019-05-09T13:41:48.382Z,2.50
2019-05-09T13:44:18.170Z,2.20
2019-05-09T13:46:48.922Z,2.70
2019-05-09T13:49:19.412Z,2.10
2019-05-09T13:51:57.574Z,2.10
2019-05-09T13:54:18.782Z,1.92
2019-05-09T13:56:54.970Z,1.87
2019-05-09T13:59:20.962Z,1.70
2019-05-09T14:01:49.733Z,1.60
2019-05-09T14:04:18.471Z,2.00
2019-05-09T14:06:48.706Z,1.75
2019-05-09T14:09:19.941Z,1.80
2019-05-09T14:11:48.182Z,2.40
2019-05-09T14:14:17.861Z,1.90
2019-05-09T14:16:47.904Z,1.67
2019-05-09T14:19:35.847Z,1.70
2019-05-09T14:21:48.140Z,2.25
2019-05-09T14:24:19.219Z,2.00
2019-05-09T14:26:48.139Z,1.85
2019-05-09T14:29:20.671Z,1.90
2019-05-09T14:31:47.348Z,1.85
2019-05-09T14:34:15.971Z,1.70
2019-05-09T14:36:46.050Z,1.70
2019-05-09T14:39:15.053Z,2.08
2019-05-09T14:41:46.977Z,2.02
2019-05-09T14:44:14.195Z,1.80
2019-05-09T14:46:43.119Z,1.90
2019-05-09T14:49:11.768Z,1.90
2019-05-09T14:51:40.454Z,1.92
2019-05-09T14:54:09.102Z,1.80
2019-05-09T14:56:41.789Z,1.82
2019-05-09T14:59:09.853Z,2.17
2019-05-09T15:01:43.055Z,1.82
2019-05-09T15:04:09.245Z,1.98
2019-05-09T15:06:38.007Z,2.00
2019-05-09T15:09:08.588Z,2.10
2019-05-09T15:11:39.631Z,1.70
2019-05-09T15:14:08.327Z,1.87
2019-05-09T15:16:39.192Z,1.90
2019-05-09T15:19:08.396Z,1.87
2019-05-09T15:21:38.285Z,1.80
2019-05-09T15:24:09.182Z,1.95
2019-05-09T15:26:37.618Z,2.20
2019-05-09T15:29:07.960Z,1.77
2019-05-09T15:31:39.189Z,1.90
2019-05-09T15:34:09.783Z,1.50
2019-05-09T15:36:38.396Z,1.30
2019-05-09T15:39:08.446Z,1.50
2019-05-09T15:41:38.521Z,1.65
2019-05-09T15:44:08.229Z,1.67
2019-05-09T15:46:41.980Z,1.60
2019-05-09T15:49:10.631Z,2.05
2019-05-09T15:51:40.975Z,1.80
2019-05-09T15:54:11.268Z,1.57
2019-05-09T15:56:39.943Z,1.90
2019-05-09T15:59:08.647Z,1.70
2019-05-09T16:01:38.570Z,2.10
2019-05-09T16:04:08.621Z,1.77
2019-05-09T16:06:39.109Z,1.70
2019-05-09T16:09:11.944Z,2.30
2019-05-09T16:11:38.613Z,1.47
2019-05-09T16:14:07.675Z,1.82
2019-05-09T16:16:38.579Z,1.80
2019-05-09T16:19:08.865Z,1.75
2019-05-09T16:21:38.268Z,1.60
2019-05-09T16:24:08.277Z,1.72
2019-05-09T16:26:38.287Z,1.72
2019-05-09T16:29:08.555Z,1.45
2019-05-09T16:31:38.838Z,1.50
2019-05-09T16:34:09.376Z,1.60
2019-05-09T16:36:39.082Z,1.35
2019-05-09T16:39:08.423Z,1.60
2019-05-09T16:44:59.463Z,1.30
2019-05-09T16:47:28.511Z,1.55
2019-05-09T16:49:58.024Z,1.50
2019-05-09T16:52:26.992Z,1.50
2019-05-09T16:54:58.506Z,1.50
2019-05-09T16:57:27.603Z,1.80
2019-05-09T16:59:56.375Z,1.70
2019-05-09T17:02:25.269Z,1.40
2019-05-09T17:04:54.112Z,1.60
2019-05-09T17:07:22.772Z,1.77
2019-05-09T17:09:51.455Z,1.80
2019-05-09T17:12:20.110Z,1.75
2019-05-09T17:14:48.800Z,1.80
2019-05-09T17:17:17.938Z,1.75
2019-05-09T17:19:48.107Z,1.90
2019-05-09T17:22:18.563Z,1.50
2019-05-09T17:24:48.488Z,1.70
2019-05-09T17:27:18.873Z,1.75
2019-05-09T17:29:47.971Z,1.70
2019-05-09T17:32:18.263Z,1.90
2019-05-09T17:34:47.643Z,2.00
2019-05-09T17:37:19.365Z,1.57
2019-05-09T17:39:48.073Z,1.75
2019-05-09T17:42:18.314Z,1.87
2019-05-09T17:44:48.827Z,1.95
2019-05-09T17:47:18.105Z,1.77
2019-05-09T17:49:48.256Z,1.60
2019-05-09T17:52:18.269Z,1.65
2019-05-09T17:54:48.526Z,1.25
2019-05-09T17:57:18.762Z,1.60
2019-05-09T17:59:48.755Z,1.67
2019-05-09T18:02:18.003Z,1.40
2019-05-09T18:04:47.997Z,1.50
2019-05-09T18:07:18.010Z,1.85
2019-05-09T18:09:48.406Z,1.50
2019-05-09T18:12:18.943Z,1.87
2019-05-09T18:14:48.013Z,1.80
2019-05-09T18:17:18.009Z,1.62
2019-05-09T18:19:47.058Z,1.60
2019-05-09T18:22:15.796Z,2.02
2019-05-09T18:24:44.562Z,1.98
2019-05-09T18:27:13.295Z,1.62
2019-05-09T18:29:42.064Z,1.72
2019-05-09T18:32:28.474Z,1.90
2019-05-09T18:35:01.800Z,1.92
2019-05-09T18:37:30.525Z,1.75
2019-05-09T18:39:59.298Z,1.87
2019-05-09T18:42:27.968Z,2.17
2019-05-09T18:44:56.761Z,2.55
2019-05-09T18:47:27.807Z,2.30
2019-05-09T18:49:55.924Z,1.98
2019-05-09T18:52:24.584Z,2.33
2019-05-09T18:54:53.279Z,2.60
2019-05-09T18:57:21.985Z,2.50
2019-05-09T18:59:50.671Z,2.30
2019-05-09T19:02:19.337Z,2.27
2019-05-09T19:04:48.036Z,1.85
2019-05-09T19:07:22.636Z,2.17
2019-05-09T19:09:47.221Z,2.02
2019-05-09T19:12:15.986Z,2.35
2019-05-09T19:14:46.056Z,2.52
2019-05-09T19:17:32.776Z,2.22
2019-05-09T19:20:15.403Z,2.15
2019-05-09T19:22:44.083Z,2.00
2019-05-09T19:25:13.031Z,2.40
2019-05-09T19:27:41.767Z,2.22
2019-05-09T19:30:10.959Z,2.22
2019-05-09T19:32:39.683Z,2.42
2019-05-09T19:35:08.957Z,2.52
2019-05-09T19:37:37.600Z,2.30
2019-05-09T19:40:07.699Z,2.55
2019-05-09T19:42:36.370Z,2.17
2019-05-09T19:45:07.931Z,2.30
2019-05-09T19:47:36.600Z,2.40
2019-05-09T19:50:06.994Z,2.27
2019-05-09T19:52:38.354Z,2.12
2019-05-09T19:55:07.190Z,2.17
2019-05-09T19:57:35.964Z,2.30
2019-05-09T20:00:07.427Z,2.45
2019-05-09T20:02:36.110Z,2.10
2019-05-09T20:05:07.277Z,2.70
2019-05-09T20:07:35.981Z,2.50
2019-05-09T20:10:10.833Z,2.80
2019-05-09T20:15:13.995Z,2.72
2019-05-09T20:17:42.719Z,2.92
2019-05-09T20:20:11.470Z,2.70
2019-05-09T20:22:52.054Z,2.40
2019-05-09T20:25:11.260Z,2.80
2019-05-09T20:27:39.961Z,3.00
2019-05-09T20:30:09.293Z,3.10
2019-05-09T20:32:37.942Z,3.08
2019-05-09T20:35:07.852Z,2.65
2019-05-09T20:37:36.790Z,2.90
2019-05-09T20:40:07.455Z,2.90
2019-05-09T20:42:36.308Z,3.10
2019-05-09T20:45:06.578Z,3.22
2019-05-09T20:47:35.625Z,3.25
2019-05-09T20:50:08.452Z,3.60
2019-05-09T20:52:37.303Z,3.85
2019-05-09T20:55:07.083Z,3.37
2019-05-09T20:57:36.024Z,3.45
2019-05-09T21:00:07.637Z,3.50
2019-05-09T21:02:36.582Z,3.37
2019-05-09T21:05:07.050Z,3.00
2019-05-09T21:07:35.912Z,3.62
2019-05-09T21:10:06.301Z,3.80
2019-05-09T21:12:35.184Z,3.10
2019-05-09T21:15:05.329Z,3.08
2019-05-09T21:17:34.243Z,3.30
2019-05-09T21:20:03.250Z,3.22
2019-05-09T21:22:32.156Z,3.42
2019-05-09T21:25:01.126Z,3.30
2019-05-09T21:27:29.952Z,3.58
2019-05-09T21:29:59.010Z,3.00
2019-05-09T21:32:27.861Z,3.00
2019-05-09T21:34:56.553Z,2.95
2019-05-09T21:37:25.230Z,3.50
2019-05-09T21:39:53.933Z,3.37
2019-05-09T21:42:22.654Z,3.60
2019-05-09T21:44:51.328Z,3.90
2019-05-09T21:47:20.904Z,3.60
2019-05-09T21:49:49.654Z,3.50
2019-05-09T21:52:18.313Z,3.62
2019-05-09T21:54:47.019Z,3.20
2019-05-09T21:57:15.695Z,3.80
2019-05-09T21:59:44.420Z,3.62
2019-05-09T22:02:13.549Z,3.52
2019-05-09T22:04:42.268Z,3.50
2019-05-09T22:07:10.952Z,3.92
2019-05-09T22:09:39.730Z,3.80
2019-05-09T22:12:08.515Z,3.80
2019-05-09T22:14:37.178Z,3.62
2019-05-09T22:17:10.384Z,3.77
2019-05-09T22:19:39.034Z,3.10
2019-05-09T22:22:07.762Z,3.85
2019-05-09T22:24:36.483Z,4.20
2019-05-09T22:27:05.489Z,4.08
2019-05-09T22:29:34.153Z,4.28
2019-05-09T22:32:02.893Z,4.58
2019-05-09T22:34:31.590Z,4.87
2019-05-09T22:37:00.248Z,4.40
2019-05-09T22:39:28.928Z,4.45
2019-05-09T22:41:57.647Z,4.53
2019-05-09T22:44:26.405Z,4.95
2019-05-09T22:46:55.064Z,4.40
2019-05-09T22:49:23.728Z,4.55
2019-05-09T22:51:52.400Z,4.03
2019-05-09T22:54:21.052Z,4.42
2019-05-09T22:56:49.773Z,4.30
2019-05-09T22:59:18.508Z,4.22
2019-05-09T23:01:47.263Z,4.10
2019-05-09T23:04:15.940Z,4.45
2019-05-09T23:06:44.689Z,4.53
2019-05-09T23:09:13.337Z,4.40
2019-05-09T23:11:42.122Z,4.20
2019-05-09T23:14:10.974Z,5.08
2019-05-09T23:16:41.025Z,4.80
2019-05-09T23:19:09.749Z,4.80
2019-05-09T23:21:38.434Z,5.15
2019-05-09T23:24:27.136Z,4.70
2019-05-09T23:26:41.913Z,5.08
2019-05-09T23:29:10.572Z,5.22
2019-05-09T23:31:46.768Z,4.80
2019-05-09T23:34:15.497Z,4.85
2019-05-09T23:36:44.268Z,4.08
2019-05-09T23:39:20.441Z,5.05
2019-05-09T23:41:49.105Z,5.12
2019-05-09T23:44:17.762Z,6.05
2019-05-09T23:46:46.446Z,5.55
2019-05-09T23:49:15.169Z,4.90
2019-05-09T23:51:45.519Z,4.75
2019-05-09T23:54:45.115Z,5.70
2019-05-09T23:57:23.492Z,5.42
